Time,TemperatureF,DewpointF,PressureIn,WindDirection,WindDirectionDegrees,WindSpeedMPH,WindSpeedGustMPH,Humidity,HourlyPrecipIn,Conditions,Clouds,dailyrainin,SoftwareType,DateUTC
2013-09-17 00:01:00,53.5,50.9,30.15,SE,145,2.0,3.0,91,0.00,,,0.01,Wunderground v.1.15,2013-09-17 05:01:00,
2013-09-17 00:05:00,53.5,50.9,30.15,SSW,203,2.0,3.0,91,0.00,,,0.00,Wunderground v.1.15,2013-09-17 05:05:00,
2013-09-17 00:08:00,53.3,50.7,30.15,SSE,159,2.0,3.0,91,0.00,,,0.00,Wunderground v.1.15,2013-09-17 05:08:00,
2013-09-17 00:10:00,53.3,50.7,30.15,SE,129,2.0,3.0,91,0.00,,,0.00,Wunderground v.1.15,2013-09-17 05:10:00,
2013-09-17 00:12:00,53.3,51.0,30.15,SSE,155,3.0,3.0,92,0.00,,,0.00,Wunderground v.1.15,2013-09-17 05:12:00,
2013-09-17 00:16:00,53.2,50.6,30.15,SSE,162,2.0,3.0,91,0.00,,,0.00,Wunderground v.1.15,2013-09-17 05:16:00,
2013-09-17 00:20:00,53.2,50.9,30.15,SE,136,2.0,3.0,92,0.00,,,0.00,Wunderground v.1.15,2013-09-17 05:20:00,
2013-09-17 00:22:00,53.2,50.9,30.15,SSE,160,2.0,3.0,92,0.00,,,0.00,Wunderground v.1.15,2013-09-17 05:22:00,
2013-09-17 00:26:00,53.2,50.9,30.15,SSE,166,2.0,3.0,92,0.00,,,0.00,Wunderground v.1.15,2013-09-17 05:26:00,
2013-09-17 00:28:00,53.1,50.8,30.15,SSE,156,3.0,3.0,92,0.00,,,0.00,Wunderground v.1.15,2013-09-17 05:28:00,
2013-09-17 00:30:00,53.1,50.8,30.14,SE,128,3.0,3.0,92,0.00,,,0.00,Wunderground v.1.15,2013-09-17 05:30:00,
2013-09-17 00:38:00,53.0,50.7,30.15,SSE,165,3.0,4.0,92,0.00,,,0.00,Wunderground v.1.15,2013-09-17 05:38:00,
2013-09-17 00:40:00,53.0,50.7,30.15,SSE,162,3.0,3.0,92,0.00,,,0.00,Wunderground v.1.15,2013-09-17 05:40:00,
2013-09-17 00:46:00,52.9,50.6,30.15,SE,135,3.0,3.0,92,0.00,,,0.00,Wunderground v.1.15,2013-09-17 05:46:00,
2013-09-17 00:48:00,52.9,50.6,30.15,SSE,149,3.0,3.0,92,0.00,,,0.00,Wunderground v.1.15,2013-09-17 05:48:00,
2013-09-17 00:51:00,52.9,50.6,30.15,SE,135,2.0,4.0,92,0.00,,,0.00,Wunderground v.1.15,2013-09-17 05:51:00,
2013-09-17 00:53:00,52.9,50.6,30.14,SSE,168,3.0,4.0,92,0.00,,,0.00,Wunderground v.1.15,2013-09-17 05:53:00,
2013-09-17 00:55:00,52.8,50.5,30.14,SE,136,3.0,4.0,92,0.00,,,0.00,Wunderground v.1.15,2013-09-17 05:55:00,
2013-09-17 00:57:00,52.8,50.5,30.14,SSE,152,3.0,4.0,92,0.00,,,0.00,Wunderground v.1.15,2013-09-17 05:57:00,
2013-09-17 01:00:00,52.7,50.4,30.14,SSE,157,3.0,3.0,92,0.00,,,0.00,Wunderground v.1.15,2013-09-17 06:00:00,
2013-09-17 01:02:00,52.7,50.4,30.15,SE,142,3.0,4.0,92,0.00,,,0.00,Wunderground v.1.15,2013-09-17 06:02:00,
2013-09-17 01:04:00,52.7,50.4,30.14,SE,131,3.0,5.0,92,0.00,,,0.00,Wunderground v.1.15,2013-09-17 06:04:00,
2013-09-17 01:06:00,52.7,50.4,30.14,SSE,155,3.0,5.0,92,0.00,,,0.00,Wunderground v.1.15,2013-09-17 06:06:00,
2013-09-17 01:08:00,52.7,50.4,30.14,SSE,166,3.0,5.0,92,0.00,,,0.00,Wunderground v.1.15,2013-09-17 06:08:00,
2013-09-17 01:12:00,52.6,50.0,30.14,SSE,148,4.0,5.0,91,0.00,,,0.00,Wunderground v.1.15,2013-09-17 06:12:00,
2013-09-17 01:14:00,52.7,50.4,30.14,SE,135,4.0,5.0,92,0.00,,,0.00,Wunderground v.1.15,2013-09-17 06:14:00,
2013-09-17 01:16:00,52.7,50.4,30.14,SE,143,4.0,5.0,92,0.00,,,0.00,Wunderground v.1.15,2013-09-17 06:16:00,
2013-09-17 01:22:00,52.6,50.3,30.14,SSW,198,4.0,5.0,92,0.00,,,0.00,Wunderground v.1.15,2013-09-17 06:22:00,
2013-09-17 01:24:00,52.6,50.3,30.14,South,178,4.0,5.0,92,0.00,,,0.00,Wunderground v.1.15,2013-09-17 06:24:00,
2013-09-17 01:26:00,52.6,50.3,30.14,SE,129,4.0,5.0,92,0.00,,,0.00,Wunderground v.1.15,2013-09-17 06:26:00,
2013-09-17 01:30:00,52.6,50.3,30.14,SE,135,4.0,4.0,92,0.00,,,0.00,Wunderground v.1.15,2013-09-17 06:30:00,
2013-09-17 01:32:00,52.6,50.3,30.14,SSE,159,3.0,5.0,92,0.00,,,0.00,Wunderground v.1.15,2013-09-17 06:32:00,
2013-09-17 01:34:00,52.7,50.4,30.14,SE,133,3.0,5.0,92,0.00,,,0.00,Wunderground v.1.15,2013-09-17 06:34:00,
2013-09-17 01:37:00,52.6,50.0,30.14,SE,134,3.0,5.0,91,0.00,,,0.00,Wunderground v.1.15,2013-09-17 06:37:00,
2013-09-17 01:39:00,52.5,50.2,30.14,SE,143,3.0,5.0,92,0.00,,,0.00,Wunderground v.1.15,2013-09-17 06:39:00,
2013-09-17 01:44:00,52.4,50.1,30.14,SE,142,3.0,5.0,92,0.00,,,0.00,Wunderground v.1.15,2013-09-17 06:44:00,
2013-09-17 01:48:00,52.3,50.0,30.14,South,181,3.0,5.0,92,0.00,,,0.00,Wunderground v.1.15,2013-09-17 06:48:00,
2013-09-17 01:52:00,52.2,49.9,30.14,SE,129,3.0,5.0,92,0.00,,,0.00,Wunderground v.1.15,2013-09-17 06:52:00,
2013-09-17 01:54:00,52.2,49.9,30.14,ESE,106,3.0,5.0,92,0.00,,,0.00,Wunderground v.1.15,2013-09-17 06:54:00,
2013-09-17 01:58:00,52.1,49.8,30.14,South,176,3.0,5.0,92,0.00,,,0.00,Wunderground v.1.15,2013-09-17 06:58:00,
2013-09-17 01:59:00,52.0,49.7,30.14,SSE,152,3.0,3.0,92,0.00,,,0.00,Wunderground v.1.15,2013-09-17 06:59:00,
2013-09-17 02:04:00,51.9,49.9,30.14,SE,140,2.0,5.0,93,0.00,,,0.00,Wunderground v.1.15,2013-09-17 07:04:00,
2013-09-17 02:06:00,51.9,49.9,30.13,SE,140,2.0,5.0,93,0.00,,,0.00,Wunderground v.1.15,2013-09-17 07:06:00,
2013-09-17 02:08:00,51.8,49.8,30.13,SE,135,2.0,5.0,93,0.00,,,0.00,Wunderground v.1.15,2013-09-17 07:08:00,
2013-09-17 02:10:00,51.7,49.7,30.13,SSE,155,2.0,2.0,93,0.00,,,0.00,Wunderground v.1.15,2013-09-17 07:10:00,
2013-09-17 02:14:00,51.6,49.6,30.13,SSE,153,2.0,5.0,93,0.00,,,0.00,Wunderground v.1.15,2013-09-17 07:14:00,
2013-09-17 02:16:00,51.6,49.6,30.13,SE,138,2.0,5.0,93,0.00,,,0.00,Wunderground v.1.15,2013-09-17 07:16:00,
2013-09-17 02:18:00,51.6,49.6,30.13,South,170,2.0,5.0,93,0.00,,,0.00,Wunderground v.1.15,2013-09-17 07:18:00,
2013-09-17 02:20:00,51.6,49.9,30.13,SSE,153,2.0,5.0,94,0.00,,,0.00,Wunderground v.1.15,2013-09-17 07:20:00,
2013-09-17 02:23:00,51.6,49.9,30.13,SSE,163,2.0,5.0,94,0.00,,,0.00,Wunderground v.1.15,2013-09-17 07:23:00,
2013-09-17 02:28:00,51.5,49.8,30.13,SSE,149,2.0,5.0,94,0.00,,,0.00,Wunderground v.1.15,2013-09-17 07:28:00,
2013-09-17 02:30:00,51.5,49.8,30.13,SE,145,2.0,5.0,94,0.00,,,0.00,Wunderground v.1.15,2013-09-17 07:30:00,
2013-09-17 02:34:00,51.4,49.7,30.12,ESE,117,2.0,5.0,94,0.00,,,0.00,Wunderground v.1.15,2013-09-17 07:34:00,
2013-09-17 02:36:00,51.5,49.8,30.12,ESE,110,2.0,5.0,94,0.00,,,0.00,Wunderground v.1.15,2013-09-17 07:36:00,
2013-09-17 02:38:00,51.5,49.8,30.12,South,174,2.0,5.0,94,0.00,,,0.00,Wunderground v.1.15,2013-09-17 07:38:00,
2013-09-17 02:43:00,51.5,49.8,30.12,ESE,122,2.0,5.0,94,0.00,,,0.00,Wunderground v.1.15,2013-09-17 07:43:00,
2013-09-17 02:46:00,51.6,49.9,30.12,ESE,123,2.0,5.0,94,0.00,,,0.00,Wunderground v.1.15,2013-09-17 07:46:00,
2013-09-17 02:48:00,51.6,49.9,30.12,SSE,158,2.0,5.0,94,0.00,,,0.00,Wunderground v.1.15,2013-09-17 07:48:00,
2013-09-17 02:50:00,51.6,49.9,30.12,SE,145,2.0,5.0,94,0.00,,,0.00,Wunderground v.1.15,2013-09-17 07:50:00,
2013-09-17 02:52:00,51.6,49.9,30.12,SE,144,2.0,5.0,94,0.00,,,0.00,Wunderground v.1.15,2013-09-17 07:52:00,
2013-09-17 02:56:00,51.7,50.0,30.12,ESE,120,2.0,5.0,94,0.00,,,0.00,Wunderground v.1.15,2013-09-17 07:56:00,
2013-09-17 03:02:00,51.7,50.0,30.11,SE,143,2.0,5.0,94,0.00,,,0.00,Wunderground v.1.15,2013-09-17 08:02:00,
2013-09-17 03:03:00,51.7,50.0,30.11,South,190,3.0,5.0,94,0.00,,,0.00,Wunderground v.1.15,2013-09-17 08:03:00,
2013-09-17 03:08:00,51.8,50.1,30.11,South,174,3.0,5.0,94,0.00,,,0.00,Wunderground v.1.15,2013-09-17 08:08:00,
2013-09-17 03:10:00,51.8,50.1,30.11,SSE,150,3.0,5.0,94,0.00,,,0.00,Wunderground v.1.15,2013-09-17 08:10:00,
2013-09-17 03:12:00,51.9,50.2,30.11,SE,135,3.0,5.0,94,0.00,,,0.00,Wunderground v.1.15,2013-09-17 08:12:00,
2013-09-17 03:14:00,51.9,50.2,30.11,SE,146,3.0,5.0,94,0.00,,,0.00,Wunderground v.1.15,2013-09-17 08:14:00,
2013-09-17 03:16:00,52.0,50.3,30.11,SE,140,2.0,5.0,94,0.00,,,0.00,Wunderground v.1.15,2013-09-17 08:16:00,
2013-09-17 03:20:00,52.2,50.5,30.11,SSE,155,3.0,5.0,94,0.00,,,0.00,Wunderground v.1.15,2013-09-17 08:20:00,
2013-09-17 03:22:00,52.3,50.6,30.11,SE,140,3.0,5.0,94,0.00,,,0.00,Wunderground v.1.15,2013-09-17 08:22:00,
2013-09-17 03:24:00,52.4,50.7,30.11,SE,134,3.0,5.0,94,0.00,,,0.00,Wunderground v.1.15,2013-09-17 08:24:00,
2013-09-17 03:25:00,52.4,50.7,30.11,SE,142,3.0,5.0,94,0.00,,,0.00,Wunderground v.1.15,2013-09-17 08:25:00,
2013-09-17 03:27:00,52.6,50.9,30.11,SSE,160,2.0,5.0,94,0.00,,,0.00,Wunderground v.1.15,2013-09-17 08:27:00,
2013-09-17 03:29:00,52.6,50.9,30.11,SSE,148,2.0,5.0,94,0.00,,,0.00,Wunderground v.1.15,2013-09-17 08:29:00,
2013-09-17 03:34:00,52.8,50.8,30.10,SSE,158,2.0,5.0,93,0.00,,,0.00,Wunderground v.1.15,2013-09-17 08:34:00,
2013-09-17 03:36:00,52.8,50.8,30.10,SE,142,3.0,5.0,93,0.00,,,0.00,Wunderground v.1.15,2013-09-17 08:36:00,
2013-09-17 03:38:00,52.9,50.9,30.10,SE,144,3.0,5.0,93,0.00,,,0.00,Wunderground v.1.15,2013-09-17 08:38:00,
2013-09-17 03:42:00,53.1,51.1,30.10,SSE,158,3.0,5.0,93,0.00,,,0.00,Wunderground v.1.15,2013-09-17 08:42:00,
2013-09-17 03:45:00,53.3,51.3,30.10,SSE,159,3.0,5.0,93,0.00,,,0.00,Wunderground v.1.15,2013-09-17 08:45:00,
2013-09-17 03:47:00,53.3,51.3,30.10,South,187,3.0,5.0,93,0.00,,,0.00,Wunderground v.1.15,2013-09-17 08:47:00,
2013-09-17 03:49:00,53.4,51.4,30.10,SSE,162,3.0,5.0,93,0.00,,,0.00,Wunderground v.1.15,2013-09-17 08:49:00,
2013-09-17 03:51:00,53.4,51.4,30.10,SSE,155,3.0,5.0,93,0.00,,,0.00,Wunderground v.1.15,2013-09-17 08:51:00,
2013-09-17 03:53:00,53.4,51.4,30.10,SE,133,3.0,5.0,93,0.00,,,0.00,Wunderground v.1.15,2013-09-17 08:53:00,
2013-09-17 03:58:00,53.5,51.5,30.10,SSE,150,3.0,5.0,93,0.00,,,0.00,Wunderground v.1.15,2013-09-17 08:58:00,
2013-09-17 04:00:00,53.4,51.1,30.09,SSE,148,3.0,3.0,92,0.00,,,0.00,Wunderground v.1.15,2013-09-17 09:00:00,
2013-09-17 04:04:00,53.4,51.1,30.09,SSE,165,3.0,5.0,92,0.00,,,0.00,Wunderground v.1.15,2013-09-17 09:04:00,
2013-09-17 04:06:00,53.3,51.0,30.09,SSE,168,3.0,5.0,92,0.00,,,0.00,Wunderground v.1.15,2013-09-17 09:06:00,
2013-09-17 04:07:00,53.3,51.0,30.09,SSE,162,3.0,5.0,92,0.00,,,0.00,Wunderground v.1.15,2013-09-17 09:07:00,
2013-09-17 04:09:00,53.3,51.0,30.09,SSE,149,3.0,3.0,92,0.00,,,0.00,Wunderground v.1.15,2013-09-17 09:09:00,
2013-09-17 04:11:00,53.3,51.0,30.09,ESE,103,3.0,5.0,92,0.00,,,0.00,Wunderground v.1.15,2013-09-17 09:11:00,
2013-09-17 04:13:00,53.3,51.3,30.09,SE,135,3.0,5.0,93,0.00,,,0.00,Wunderground v.1.15,2013-09-17 09:13:00,
2013-09-17 04:16:00,53.4,51.4,30.09,SSE,167,2.0,5.0,93,0.00,,,0.00,Wunderground v.1.15,2013-09-17 09:16:00,
2013-09-17 04:20:00,53.3,51.0,30.09,SSE,155,2.0,2.0,92,0.00,,,0.00,Wunderground v.1.15,2013-09-17 09:20:00,
2013-09-17 04:22:00,53.2,50.9,30.09,South,173,2.0,3.0,92,0.00,,,0.00,Wunderground v.1.15,2013-09-17 09:22:00,
2013-09-17 04:26:00,53.3,51.3,30.09,SSE,158,2.0,5.0,93,0.00,,,0.00,Wunderground v.1.15,2013-09-17 09:26:00,
2013-09-17 04:28:00,53.3,51.3,30.09,SE,142,2.0,5.0,93,0.00,,,0.00,Wunderground v.1.15,2013-09-17 09:28:00,
2013-09-17 04:29:00,53.3,51.3,30.09,SE,139,2.0,5.0,93,0.00,,,0.00,Wunderground v.1.15,2013-09-17 09:29:00,
2013-09-17 04:33:00,53.3,51.3,30.09,SSE,150,2.0,5.0,93,0.00,,,0.00,Wunderground v.1.15,2013-09-17 09:33:00,
2013-09-17 04:35:00,53.4,51.4,30.09,South,169,2.0,5.0,93,0.00,,,0.00,Wunderground v.1.15,2013-09-17 09:35:00,
2013-09-17 04:38:00,53.4,51.4,30.09,SSE,149,2.0,5.0,93,0.00,,,0.00,Wunderground v.1.15,2013-09-17 09:38:00,
2013-09-17 04:40:00,53.4,51.4,30.09,SSW,198,2.0,5.0,93,0.00,,,0.00,Wunderground v.1.15,2013-09-17 09:40:00,
2013-09-17 04:42:00,53.5,51.5,30.09,SSE,160,2.0,5.0,93,0.00,,,0.00,Wunderground v.1.15,2013-09-17 09:42:00,
2013-09-17 04:44:00,53.5,51.5,30.09,SE,140,2.0,5.0,93,0.00,,,0.00,Wunderground v.1.15,2013-09-17 09:44:00,
2013-09-17 04:48:00,53.6,51.6,30.09,SE,135,2.0,5.0,93,0.00,,,0.00,Wunderground v.1.15,2013-09-17 09:48:00,
2013-09-17 04:49:00,53.7,51.7,30.09,South,173,2.0,5.0,93,0.00,,,0.00,Wunderground v.1.15,2013-09-17 09:49:00,
2013-09-17 04:54:00,53.7,51.7,30.09,SSE,163,2.0,5.0,93,0.00,,,0.00,Wunderground v.1.15,2013-09-17 09:54:00,
2013-09-17 04:55:00,53.7,51.7,30.09,SE,129,2.0,5.0,93,0.00,,,0.00,Wunderground v.1.15,2013-09-17 09:55:00,
2013-09-17 05:00:00,53.7,51.7,30.09,SE,141,2.0,5.0,93,0.00,,,0.00,Wunderground v.1.15,2013-09-17 10:00:00,
2013-09-17 05:06:00,53.9,52.2,30.09,SE,138,2.0,5.0,94,0.00,,,0.00,Wunderground v.1.15,2013-09-17 10:06:00,
2013-09-17 05:10:00,53.9,51.9,30.09,SE,140,2.0,2.0,93,0.00,,,0.00,Wunderground v.1.15,2013-09-17 10:10:00,
2013-09-17 05:13:00,53.9,51.9,30.09,SSE,167,2.0,5.0,93,0.00,,,0.00,Wunderground v.1.15,2013-09-17 10:13:00,
2013-09-17 05:17:00,54.0,52.3,30.08,SE,144,2.0,5.0,94,0.00,,,0.00,Wunderground v.1.15,2013-09-17 10:17:00,
2013-09-17 05:20:00,54.0,52.3,30.08,SE,136,1.0,5.0,94,0.00,,,0.00,Wunderground v.1.15,2013-09-17 10:20:00,
2013-09-17 05:22:00,54.0,52.3,30.08,SE,125,2.0,5.0,94,0.00,,,0.00,Wunderground v.1.15,2013-09-17 10:22:00,
2013-09-17 05:24:00,54.0,52.3,30.08,SSE,150,1.0,5.0,94,0.00,,,0.01,Wunderground v.1.15,2013-09-17 10:24:00,
2013-09-17 05:26:00,54.0,52.3,30.08,SE,139,1.0,5.0,94,0.00,,,0.01,Wunderground v.1.15,2013-09-17 10:26:00,
2013-09-17 05:28:00,54.0,52.3,30.08,SSE,150,2.0,5.0,94,0.00,,,0.01,Wunderground v.1.15,2013-09-17 10:28:00,
2013-09-17 05:32:00,54.0,52.3,30.08,SE,141,1.0,5.0,94,0.00,,,0.01,Wunderground v.1.15,2013-09-17 10:32:00,
2013-09-17 05:34:00,54.0,52.3,30.08,East,101,2.0,5.0,94,0.06,,,0.02,Wunderground v.1.15,2013-09-17 10:34:00,
2013-09-17 05:37:00,54.1,52.7,30.08,SSE,150,2.0,5.0,95,0.15,,,0.03,Wunderground v.1.15,2013-09-17 10:37:00,
2013-09-17 05:39:00,54.2,52.8,30.08,SSE,148,2.0,5.0,95,0.15,,,0.03,Wunderground v.1.15,2013-09-17 10:39:00,
2013-09-17 05:42:00,54.2,52.8,30.08,SE,143,3.0,5.0,95,0.11,,,0.03,Wunderground v.1.15,2013-09-17 10:42:00,
2013-09-17 05:46:00,54.3,53.2,30.07,SE,142,3.0,5.0,96,0.06,,,0.03,Wunderground v.1.15,2013-09-17 10:46:00,
2013-09-17 05:50:00,54.3,53.2,30.07,SE,142,3.0,5.0,96,0.04,,,0.03,Wunderground v.1.15,2013-09-17 10:50:00,
2013-09-17 05:52:00,54.3,53.2,30.07,SE,141,3.0,5.0,96,0.04,,,0.03,Wunderground v.1.15,2013-09-17 10:52:00,
2013-09-17 05:54:00,54.3,53.2,30.07,SSE,165,3.0,5.0,96,0.00,,,0.03,Wunderground v.1.15,2013-09-17 10:54:00,
2013-09-17 05:55:00,54.5,53.4,30.07,SE,141,3.0,5.0,96,0.00,,,0.03,Wunderground v.1.15,2013-09-17 10:55:00,
2013-09-17 06:01:00,54.6,53.5,30.07,SSE,155,3.0,5.0,96,0.00,,,0.04,Wunderground v.1.15,2013-09-17 11:01:00,
2013-09-17 06:04:00,54.6,53.5,30.07,SSE,156,2.0,5.0,96,0.00,,,0.04,Wunderground v.1.15,2013-09-17 11:04:00,
2013-09-17 06:08:00,54.6,53.5,30.07,SE,134,2.0,5.0,96,0.00,,,0.04,Wunderground v.1.15,2013-09-17 11:08:00,
2013-09-17 06:10:00,54.6,53.5,30.07,SE,136,2.0,5.0,96,0.00,,,0.04,Wunderground v.1.15,2013-09-17 11:10:00,
2013-09-17 06:12:00,54.6,53.5,30.07,ESE,115,2.0,5.0,96,0.00,,,0.04,Wunderground v.1.15,2013-09-17 11:12:00,
2013-09-17 06:15:00,54.6,53.5,30.07,SE,141,2.0,5.0,96,0.00,,,0.04,Wunderground v.1.15,2013-09-17 11:15:00,
2013-09-17 06:18:00,54.5,53.4,30.07,SE,125,2.0,5.0,96,0.00,,,0.04,Wunderground v.1.15,2013-09-17 11:18:00,
2013-09-17 06:19:00,54.4,53.3,30.07,SSE,148,1.0,5.0,96,0.00,,,0.04,Wunderground v.1.15,2013-09-17 11:19:00,
2013-09-17 06:24:00,54.3,53.2,30.07,SE,133,1.0,5.0,96,0.00,,,0.04,Wunderground v.1.15,2013-09-17 11:24:00,
2013-09-17 06:26:00,54.3,53.2,30.07,SE,133,1.0,5.0,96,0.00,,,0.04,Wunderground v.1.15,2013-09-17 11:26:00,
2013-09-17 06:28:00,54.3,53.2,30.07,SSE,150,2.0,5.0,96,0.00,,,0.04,Wunderground v.1.15,2013-09-17 11:28:00,
2013-09-17 06:30:00,54.3,53.2,30.06,ESE,122,2.0,5.0,96,0.00,,,0.04,Wunderground v.1.15,2013-09-17 11:30:00,
2013-09-17 06:32:00,54.4,53.3,30.06,SE,134,2.0,5.0,96,0.00,,,0.05,Wunderground v.1.15,2013-09-17 11:32:00,
2013-09-17 06:34:00,54.4,53.3,30.06,SE,139,2.0,5.0,96,0.00,,,0.05,Wunderground v.1.15,2013-09-17 11:34:00,
2013-09-17 06:36:00,54.3,53.2,30.06,ESE,120,2.0,5.0,96,0.00,,,0.05,Wunderground v.1.15,2013-09-17 11:36:00,
2013-09-17 06:37:00,54.4,53.3,30.06,SE,130,3.0,5.0,96,0.00,,,0.05,Wunderground v.1.15,2013-09-17 11:37:00,
2013-09-17 06:40:00,54.4,53.3,30.06,SSE,152,3.0,5.0,96,0.00,,,0.05,Wunderground v.1.15,2013-09-17 11:40:00,
2013-09-17 06:41:00,54.5,53.7,30.06,SE,135,2.0,5.0,97,0.00,,,0.05,Wunderground v.1.15,2013-09-17 11:41:00,
2013-09-17 06:46:00,54.6,53.8,30.06,SE,141,3.0,5.0,97,0.00,,,0.05,Wunderground v.1.15,2013-09-17 11:46:00,
2013-09-17 06:48:00,54.6,53.8,30.06,SE,143,3.0,5.0,97,0.00,,,0.05,Wunderground v.1.15,2013-09-17 11:48:00,
2013-09-17 06:50:00,54.6,53.8,30.06,SE,124,2.0,5.0,97,0.00,,,0.05,Wunderground v.1.15,2013-09-17 11:50:00,
2013-09-17 06:56:00,54.7,53.9,30.06,SSE,167,3.0,5.0,97,0.00,,,0.05,Wunderground v.1.15,2013-09-17 11:56:00,
2013-09-17 06:58:00,54.7,53.9,30.06,SSE,148,3.0,5.0,97,0.00,,,0.05,Wunderground v.1.15,2013-09-17 11:58:00,
2013-09-17 06:59:00,54.7,53.9,30.06,SSE,148,3.0,5.0,97,0.00,,,0.05,Wunderground v.1.15,2013-09-17 11:59:00,
2013-09-17 07:01:00,54.7,53.9,30.06,SE,130,3.0,5.0,97,0.00,,,0.05,Wunderground v.1.15,2013-09-17 12:01:00,
2013-09-17 07:05:00,54.6,53.8,30.06,SSE,162,3.0,5.0,97,0.00,,,0.05,Wunderground v.1.15,2013-09-17 12:05:00,
2013-09-17 07:08:00,54.6,53.8,30.06,SSE,162,3.0,5.0,97,0.00,,,0.05,Wunderground v.1.15,2013-09-17 12:08:00,
2013-09-17 07:10:00,54.6,53.8,30.06,SE,143,2.0,5.0,97,0.00,,,0.05,Wunderground v.1.15,2013-09-17 12:10:00,
2013-09-17 07:14:00,54.6,53.8,30.06,SE,136,3.0,5.0,97,0.00,,,0.05,Wunderground v.1.15,2013-09-17 12:14:00,
2013-09-17 07:16:00,54.7,53.9,30.06,SSE,156,3.0,5.0,97,0.00,,,0.05,Wunderground v.1.15,2013-09-17 12:16:00,
2013-09-17 07:20:00,54.7,53.9,30.06,SE,135,3.0,5.0,97,0.00,,,0.05,Wunderground v.1.15,2013-09-17 12:20:00,
2013-09-17 07:21:00,54.8,54.0,30.06,SSE,148,3.0,5.0,97,0.00,,,0.05,Wunderground v.1.15,2013-09-17 12:21:00,
2013-09-17 07:23:00,54.8,54.0,30.06,SSE,167,3.0,5.0,97,0.00,,,0.05,Wunderground v.1.15,2013-09-17 12:23:00,
2013-09-17 07:28:00,54.9,54.1,30.06,SSE,158,3.0,5.0,97,0.00,,,0.05,Wunderground v.1.15,2013-09-17 12:28:00,
2013-09-17 07:30:00,55.0,54.2,30.06,SE,141,3.0,3.0,97,0.00,,,0.05,Wunderground v.1.15,2013-09-17 12:30:00,
2013-09-17 07:34:00,55.0,54.2,30.06,SE,135,3.0,5.0,97,0.00,,,0.05,Wunderground v.1.15,2013-09-17 12:34:00,
2013-09-17 07:36:00,55.1,54.3,30.06,SE,136,3.0,5.0,97,0.00,,,0.05,Wunderground v.1.15,2013-09-17 12:36:00,
2013-09-17 07:38:00,55.0,54.2,30.06,SSE,149,3.0,5.0,97,0.00,,,0.05,Wunderground v.1.15,2013-09-17 12:38:00,
2013-09-17 07:40:00,55.1,54.3,30.06,SE,136,3.0,3.0,97,0.00,,,0.05,Wunderground v.1.15,2013-09-17 12:40:00,
2013-09-17 07:43:00,55.1,54.3,30.06,South,183,3.0,5.0,97,0.00,,,0.05,Wunderground v.1.15,2013-09-17 12:43:00,
2013-09-17 07:45:00,55.1,54.3,30.06,SE,145,3.0,5.0,97,0.00,,,0.05,Wunderground v.1.15,2013-09-17 12:45:00,
2013-09-17 07:47:00,55.1,54.3,30.06,SSE,156,3.0,5.0,97,0.00,,,0.05,Wunderground v.1.15,2013-09-17 12:47:00,
2013-09-17 07:50:00,55.2,54.4,30.06,ESE,103,2.0,5.0,97,0.00,,,0.05,Wunderground v.1.15,2013-09-17 12:50:00,
2013-09-17 07:52:00,55.2,54.4,30.06,SE,133,2.0,5.0,97,0.00,,,0.05,Wunderground v.1.15,2013-09-17 12:52:00,
2013-09-17 07:56:00,55.1,54.3,30.06,SSE,148,2.0,5.0,97,0.00,,,0.05,Wunderground v.1.15,2013-09-17 12:56:00,
2013-09-17 07:58:00,55.2,54.4,30.06,SSE,156,2.0,5.0,97,0.00,,,0.05,Wunderground v.1.15,2013-09-17 12:58:00,
2013-09-17 08:00:00,55.2,54.4,30.06,SSE,158,2.0,2.0,97,0.00,,,0.05,Wunderground v.1.15,2013-09-17 13:00:00,
2013-09-17 08:01:00,55.2,54.4,30.06,SSE,155,2.0,3.0,97,0.00,,,0.05,Wunderground v.1.15,2013-09-17 13:01:00,
2013-09-17 08:03:00,55.3,54.5,30.06,SE,139,2.0,5.0,97,0.00,,,0.05,Wunderground v.1.15,2013-09-17 13:03:00,
2013-09-17 08:09:00,55.3,54.5,30.05,SE,138,2.0,5.0,97,0.00,,,0.05,Wunderground v.1.15,2013-09-17 13:09:00,
2013-09-17 08:12:00,55.2,54.4,30.05,SE,141,2.0,5.0,97,0.00,,,0.05,Wunderground v.1.15,2013-09-17 13:12:00,
2013-09-17 08:16:00,55.3,54.5,30.05,SSE,160,2.0,5.0,97,0.00,,,0.05,Wunderground v.1.15,2013-09-17 13:16:00,
2013-09-17 08:18:00,55.3,54.5,30.05,SE,138,2.0,5.0,97,0.00,,,0.05,Wunderground v.1.15,2013-09-17 13:18:00,
2013-09-17 08:20:00,55.3,54.5,30.05,SE,145,2.0,2.0,97,0.00,,,0.05,Wunderground v.1.15,2013-09-17 13:20:00,
2013-09-17 08:23:00,55.3,54.5,30.05,SSE,152,2.0,5.0,97,0.00,,,0.05,Wunderground v.1.15,2013-09-17 13:23:00,
2013-09-17 08:29:00,55.4,54.6,30.05,ESE,117,2.0,2.0,97,0.00,,,0.05,Wunderground v.1.15,2013-09-17 13:29:00,
2013-09-17 08:34:00,55.4,54.6,30.05,SSE,153,2.0,5.0,97,0.00,,,0.06,Wunderground v.1.15,2013-09-17 13:34:00,
2013-09-17 08:36:00,55.4,54.6,30.05,SE,131,2.0,5.0,97,0.00,,,0.06,Wunderground v.1.15,2013-09-17 13:36:00,
2013-09-17 08:38:00,55.4,54.6,30.05,SE,142,3.0,5.0,97,0.00,,,0.06,Wunderground v.1.15,2013-09-17 13:38:00,
2013-09-17 08:44:00,55.5,54.7,30.05,South,170,3.0,5.0,97,0.00,,,0.06,Wunderground v.1.15,2013-09-17 13:44:00,
2013-09-17 08:46:00,55.5,54.7,30.05,SE,137,3.0,6.0,97,0.00,,,0.06,Wunderground v.1.15,2013-09-17 13:46:00,
2013-09-17 08:49:00,55.5,54.7,30.04,SSE,149,3.0,5.0,97,0.00,,,0.06,Wunderground v.1.15,2013-09-17 13:49:00,
2013-09-17 08:51:00,55.5,54.7,30.04,SSE,165,4.0,5.0,97,0.00,,,0.06,Wunderground v.1.15,2013-09-17 13:51:00,
2013-09-17 08:54:00,55.5,54.7,30.04,SSE,150,4.0,5.0,97,0.00,,,0.06,Wunderground v.1.15,2013-09-17 13:54:00,
2013-09-17 09:00:00,55.7,55.1,30.04,SE,139,3.0,3.0,98,0.00,,,0.06,Wunderground v.1.15,2013-09-17 14:00:00,
2013-09-17 09:04:00,55.6,54.8,30.04,SSE,155,3.0,6.0,97,0.00,,,0.06,Wunderground v.1.15,2013-09-17 14:04:00,
2013-09-17 09:05:00,55.6,54.8,30.04,East,101,3.0,6.0,97,0.00,,,0.06,Wunderground v.1.15,2013-09-17 14:05:00,
2013-09-17 09:08:00,55.7,54.9,30.04,SSE,148,3.0,6.0,97,0.00,,,0.06,Wunderground v.1.15,2013-09-17 14:08:00,
2013-09-17 09:11:00,55.6,54.8,30.04,SSE,155,4.0,5.0,97,0.00,,,0.06,Wunderground v.1.15,2013-09-17 14:11:00,
2013-09-17 09:18:00,55.7,54.9,30.03,SE,132,4.0,6.0,97,0.00,,,0.06,Wunderground v.1.15,2013-09-17 14:18:00,
2013-09-17 09:20:00,55.7,54.9,30.03,ESE,115,4.0,4.0,97,0.00,,,0.06,Wunderground v.1.15,2013-09-17 14:20:00,
2013-09-17 09:24:00,55.8,55.2,30.03,SSW,205,4.0,5.0,98,0.00,,,0.06,Wunderground v.1.15,2013-09-17 14:24:00,
2013-09-17 09:26:00,55.8,55.2,30.03,SSE,163,4.0,5.0,98,0.00,,,0.06,Wunderground v.1.15,2013-09-17 14:26:00,
2013-09-17 09:30:00,55.9,55.3,30.03,SSE,148,4.0,5.0,98,0.00,,,0.06,Wunderground v.1.15,2013-09-17 14:30:00,
2013-09-17 09:31:00,55.9,55.3,30.03,SE,142,4.0,5.0,98,0.00,,,0.06,Wunderground v.1.15,2013-09-17 14:31:00,
2013-09-17 09:33:00,56.0,55.4,30.03,SE,141,4.0,5.0,98,0.00,,,0.06,Wunderground v.1.15,2013-09-17 14:33:00,
2013-09-17 09:36:00,56.0,55.2,30.03,SE,138,4.0,5.0,97,0.00,,,0.06,Wunderground v.1.15,2013-09-17 14:36:00,
2013-09-17 09:38:00,56.0,55.2,30.03,SSE,155,4.0,5.0,97,0.00,,,0.06,Wunderground v.1.15,2013-09-17 14:38:00,
2013-09-17 09:40:00,56.0,55.2,30.03,SSE,149,4.0,4.0,97,0.00,,,0.06,Wunderground v.1.15,2013-09-17 14:40:00,
2013-09-17 09:42:00,56.0,55.2,30.03,SE,136,4.0,5.0,97,0.00,,,0.06,Wunderground v.1.15,2013-09-17 14:42:00,
2013-09-17 09:46:00,56.0,55.2,30.03,SSE,159,4.0,5.0,97,0.00,,,0.06,Wunderground v.1.15,2013-09-17 14:46:00,
2013-09-17 09:48:00,56.1,55.3,30.03,SE,146,4.0,5.0,97,0.00,,,0.06,Wunderground v.1.15,2013-09-17 14:48:00,
2013-09-17 09:50:00,56.2,55.4,30.03,SSE,155,4.0,5.0,97,0.00,,,0.06,Wunderground v.1.15,2013-09-17 14:50:00,
2013-09-17 09:51:00,56.2,55.4,30.03,South,174,4.0,5.0,97,0.00,,,0.06,Wunderground v.1.15,2013-09-17 14:51:00,
2013-09-17 09:53:00,56.2,55.6,30.03,SE,134,4.0,6.0,98,0.00,,,0.06,Wunderground v.1.15,2013-09-17 14:53:00,
2013-09-17 09:55:00,56.3,55.5,30.03,SE,143,4.0,6.0,97,0.00,,,0.06,Wunderground v.1.15,2013-09-17 14:55:00,
2013-09-17 09:58:00,56.3,55.7,30.03,SE,128,4.0,6.0,98,0.00,,,0.06,Wunderground v.1.15,2013-09-17 14:58:00,
2013-09-17 10:00:00,56.4,55.8,30.03,SSE,155,4.0,5.0,98,0.00,,,0.06,Wunderground v.1.15,2013-09-17 15:00:00,
2013-09-17 10:04:00,56.5,55.7,30.03,ESE,121,4.0,7.0,97,0.00,,,0.06,Wunderground v.1.15,2013-09-17 15:04:00,
2013-09-17 10:06:00,56.5,55.7,30.03,SSE,163,4.0,7.0,97,0.00,,,0.06,Wunderground v.1.15,2013-09-17 15:06:00,
2013-09-17 10:10:00,56.5,55.7,30.02,SSE,158,4.0,5.0,97,0.00,,,0.06,Wunderground v.1.15,2013-09-17 15:10:00,
2013-09-17 10:11:00,56.5,55.9,30.02,South,184,4.0,5.0,98,0.00,,,0.06,Wunderground v.1.15,2013-09-17 15:11:00,
2013-09-17 10:13:00,56.5,55.7,30.02,SSE,158,4.0,5.0,97,0.00,,,0.06,Wunderground v.1.15,2013-09-17 15:13:00,
2013-09-17 10:17:00,56.6,56.0,30.02,SSE,156,4.0,6.0,98,0.00,,,0.06,Wunderground v.1.15,2013-09-17 15:17:00,
2013-09-17 10:20:00,56.6,55.8,30.02,SE,141,4.0,5.0,97,0.00,,,0.06,Wunderground v.1.15,2013-09-17 15:20:00,
2013-09-17 10:24:00,56.7,56.1,30.02,SE,146,4.0,5.0,98,0.00,,,0.06,Wunderground v.1.15,2013-09-17 15:24:00,
2013-09-17 10:28:00,56.7,55.9,30.02,SSE,155,4.0,5.0,97,0.00,,,0.06,Wunderground v.1.15,2013-09-17 15:28:00,
2013-09-17 10:31:00,56.8,56.2,30.02,SSE,149,4.0,5.0,98,0.00,,,0.06,Wunderground v.1.15,2013-09-17 15:31:00,
2013-09-17 10:35:00,56.8,56.2,30.02,SSE,155,4.0,5.0,98,0.00,,,0.06,Wunderground v.1.15,2013-09-17 15:35:00,
2013-09-17 10:37:00,56.9,56.3,30.02,SSE,167,4.0,5.0,98,0.00,,,0.06,Wunderground v.1.15,2013-09-17 15:37:00,
2013-09-17 10:40:00,56.9,56.3,30.02,ESE,112,4.0,5.0,98,0.00,,,0.06,Wunderground v.1.15,2013-09-17 15:40:00,
2013-09-17 10:42:00,56.9,56.1,30.02,SE,143,4.0,5.0,97,0.00,,,0.06,Wunderground v.1.15,2013-09-17 15:42:00,
2013-09-17 10:48:00,57.1,56.5,30.02,SE,145,5.0,5.0,98,0.00,,,0.06,Wunderground v.1.15,2013-09-17 15:48:00,
2013-09-17 10:50:00,57.1,56.5,30.02,South,174,5.0,5.0,98,0.00,,,0.06,Wunderground v.1.15,2013-09-17 15:50:00,
2013-09-17 10:53:00,57.1,56.3,30.02,East,96,4.0,5.0,97,0.00,,,0.06,Wunderground v.1.15,2013-09-17 15:53:00,
2013-09-17 10:55:00,57.1,56.3,30.01,South,176,4.0,5.0,97,0.00,,,0.06,Wunderground v.1.15,2013-09-17 15:55:00,
2013-09-17 10:57:00,57.1,56.3,30.02,South,176,4.0,5.0,97,0.00,,,0.06,Wunderground v.1.15,2013-09-17 15:57:00,
2013-09-17 10:59:00,57.1,56.3,30.01,SSE,161,4.0,4.0,97,0.00,,,0.06,Wunderground v.1.15,2013-09-17 15:59:00,
2013-09-17 11:04:00,57.2,56.4,30.01,SSE,148,4.0,6.0,97,0.00,,,0.06,Wunderground v.1.15,2013-09-17 16:04:00,
2013-09-17 11:06:00,57.2,56.4,30.01,SE,135,4.0,6.0,97,0.00,,,0.06,Wunderground v.1.15,2013-09-17 16:06:00,
2013-09-17 11:10:00,57.3,56.5,30.01,South,169,4.0,5.0,97,0.00,,,0.06,Wunderground v.1.15,2013-09-17 16:10:00,
2013-09-17 11:13:00,57.3,56.5,30.01,SE,129,4.0,6.0,97,0.00,,,0.06,Wunderground v.1.15,2013-09-17 16:13:00,
2013-09-17 11:15:00,57.4,56.6,30.01,South,181,4.0,6.0,97,0.00,,,0.06,Wunderground v.1.15,2013-09-17 16:15:00,
2013-09-17 11:19:00,57.4,56.6,30.01,SSE,153,4.0,4.0,97,0.00,,,0.06,Wunderground v.1.15,2013-09-17 16:19:00,
2013-09-17 11:21:00,57.5,56.7,30.01,South,176,4.0,5.0,97,0.00,,,0.06,Wunderground v.1.15,2013-09-17 16:21:00,
2013-09-17 11:26:00,57.5,56.7,30.01,SSE,158,4.0,5.0,97,0.00,,,0.06,Wunderground v.1.15,2013-09-17 16:26:00,
2013-09-17 11:28:00,57.5,56.7,30.01,WSW,241,4.0,5.0,97,0.00,,,0.06,Wunderground v.1.15,2013-09-17 16:28:00,
2013-09-17 11:30:00,57.5,56.7,30.01,South,169,4.0,5.0,97,0.00,,,0.06,Wunderground v.1.15,2013-09-17 16:30:00,
2013-09-17 11:32:00,57.6,56.8,30.01,SSE,167,4.0,5.0,97,0.00,,,0.06,Wunderground v.1.15,2013-09-17 16:32:00,
2013-09-17 11:35:00,57.5,56.7,30.01,South,191,3.0,5.0,97,0.00,,,0.06,Wunderground v.1.15,2013-09-17 16:35:00,
2013-09-17 11:37:00,57.5,56.7,30.01,SE,138,4.0,5.0,97,0.00,,,0.06,Wunderground v.1.15,2013-09-17 16:37:00,
2013-09-17 11:41:00,57.4,56.6,30.00,SSE,165,4.0,5.0,97,0.00,,,0.06,Wunderground v.1.15,2013-09-17 16:41:00,
2013-09-17 11:44:00,57.4,56.6,30.00,SE,141,4.0,5.0,97,0.00,,,0.06,Wunderground v.1.15,2013-09-17 16:44:00,
2013-09-17 11:46:00,57.4,56.6,30.00,South,176,4.0,6.0,97,0.00,,,0.06,Wunderground v.1.15,2013-09-17 16:46:00,
2013-09-17 11:48:00,57.5,56.7,30.00,SE,141,4.0,6.0,97,0.00,,,0.06,Wunderground v.1.15,2013-09-17 16:48:00,
2013-09-17 11:52:00,57.5,56.7,30.00,South,181,4.0,5.0,97,0.00,,,0.06,Wunderground v.1.15,2013-09-17 16:52:00,
2013-09-17 11:56:00,57.5,56.7,30.00,SE,145,4.0,5.0,97,0.00,,,0.06,Wunderground v.1.15,2013-09-17 16:56:00,
2013-09-17 11:57:00,57.4,56.6,30.00,SSE,155,4.0,5.0,97,0.00,,,0.06,Wunderground v.1.15,2013-09-17 16:57:00,
2013-09-17 12:01:00,57.5,56.7,30.00,ESE,115,3.0,5.0,97,0.00,,,0.06,Wunderground v.1.15,2013-09-17 17:01:00,
2013-09-17 12:08:00,57.5,56.7,29.99,SE,135,3.0,5.0,97,0.00,,,0.06,Wunderground v.1.15,2013-09-17 17:08:00,
2013-09-17 12:12:00,57.6,56.8,29.99,SSE,167,3.0,4.0,97,0.00,,,0.06,Wunderground v.1.15,2013-09-17 17:12:00,
2013-09-17 12:16:00,57.6,56.8,29.99,SE,141,3.0,4.0,97,0.00,,,0.06,Wunderground v.1.15,2013-09-17 17:16:00,
2013-09-17 12:17:00,57.7,56.9,29.99,SSW,210,3.0,4.0,97,0.00,,,0.06,Wunderground v.1.15,2013-09-17 17:17:00,
2013-09-17 12:21:00,57.7,56.9,29.99,SE,134,4.0,4.0,97,0.00,,,0.06,Wunderground v.1.15,2013-09-17 17:21:00,
2013-09-17 12:23:00,57.7,56.9,29.99,SE,125,4.0,7.0,97,0.00,,,0.06,Wunderground v.1.15,2013-09-17 17:23:00,
2013-09-17 12:28:00,57.7,56.9,29.98,SE,145,4.0,7.0,97,0.00,,,0.06,Wunderground v.1.15,2013-09-17 17:28:00,
2013-09-17 12:30:00,57.7,56.9,29.98,SSE,150,4.0,4.0,97,0.00,,,0.06,Wunderground v.1.15,2013-09-17 17:30:00,
2013-09-17 12:32:00,57.7,56.9,29.98,SE,143,5.0,5.0,97,0.00,,,0.06,Wunderground v.1.15,2013-09-17 17:32:00,
2013-09-17 12:34:00,57.8,57.0,29.98,SE,139,4.0,6.0,97,0.00,,,0.06,Wunderground v.1.15,2013-09-17 17:34:00,
2013-09-17 12:39:00,57.8,57.0,29.98,SSE,165,4.0,6.0,97,0.00,,,0.06,Wunderground v.1.15,2013-09-17 17:39:00,
2013-09-17 12:45:00,57.6,56.8,29.98,SE,135,5.0,6.0,97,0.00,,,0.06,Wunderground v.1.15,2013-09-17 17:45:00,
2013-09-17 12:48:00,57.7,56.9,29.98,SSE,148,5.0,6.0,97,0.00,,,0.06,Wunderground v.1.15,2013-09-17 17:48:00,
2013-09-17 12:50:00,57.7,56.9,29.98,SSE,160,5.0,5.0,97,0.00,,,0.06,Wunderground v.1.15,2013-09-17 17:50:00,
2013-09-17 12:56:00,57.6,56.8,29.98,SSE,165,5.0,6.0,97,0.00,,,0.06,Wunderground v.1.15,2013-09-17 17:56:00,
2013-09-17 12:58:00,57.6,56.8,29.98,SSE,155,5.0,6.0,97,0.00,,,0.06,Wunderground v.1.15,2013-09-17 17:58:00,
2013-09-17 13:00:00,57.6,57.0,29.97,ESE,117,5.0,5.0,98,0.00,,,0.06,Wunderground v.1.15,2013-09-17 18:00:00,
2013-09-17 13:01:00,57.7,57.1,29.97,ESE,122,5.0,8.0,98,0.00,,,0.06,Wunderground v.1.15,2013-09-17 18:01:00,
2013-09-17 13:05:00,57.6,57.0,29.97,SE,139,5.0,8.0,98,0.00,,,0.06,Wunderground v.1.15,2013-09-17 18:05:00,
2013-09-17 13:10:00,57.6,57.0,29.97,SE,145,4.0,4.0,98,0.00,,,0.06,Wunderground v.1.15,2013-09-17 18:10:00,
2013-09-17 13:16:00,57.7,57.1,29.97,SSE,160,4.0,8.0,98,0.00,,,0.06,Wunderground v.1.15,2013-09-17 18:16:00,
2013-09-17 13:18:00,57.6,57.0,29.97,SE,135,4.0,8.0,98,0.00,,,0.06,Wunderground v.1.15,2013-09-17 18:18:00,
2013-09-17 13:20:00,57.7,57.1,29.97,SE,139,5.0,8.0,98,0.00,,,0.06,Wunderground v.1.15,2013-09-17 18:20:00,
2013-09-17 13:23:00,57.7,57.1,29.97,SSE,158,5.0,8.0,98,0.00,,,0.06,Wunderground v.1.15,2013-09-17 18:23:00,
2013-09-17 13:27:00,57.7,57.1,29.96,SE,139,5.0,8.0,98,0.00,,,0.06,Wunderground v.1.15,2013-09-17 18:27:00,
2013-09-17 13:34:00,57.8,57.2,29.96,SSE,150,4.0,8.0,98,0.00,,,0.06,Wunderground v.1.15,2013-09-17 18:34:00,
2013-09-17 13:36:00,57.9,57.3,29.96,SSE,159,4.0,8.0,98,0.00,,,0.06,Wunderground v.1.15,2013-09-17 18:36:00,
2013-09-17 13:40:00,57.8,57.2,29.96,SSE,150,4.0,8.0,98,0.00,,,0.06,Wunderground v.1.15,2013-09-17 18:40:00,
2013-09-17 13:42:00,57.9,57.3,29.96,SSE,158,4.0,8.0,98,0.00,,,0.06,Wunderground v.1.15,2013-09-17 18:42:00,
2013-09-17 13:43:00,57.9,57.3,29.95,SSE,153,4.0,8.0,98,0.00,,,0.06,Wunderground v.1.15,2013-09-17 18:43:00,
2013-09-17 13:45:00,57.9,57.3,29.95,SE,138,4.0,8.0,98,0.00,,,0.06,Wunderground v.1.15,2013-09-17 18:45:00,
2013-09-17 13:49:00,58.0,57.4,29.95,SE,137,4.0,4.0,98,0.00,,,0.06,Wunderground v.1.15,2013-09-17 18:49:00,
2013-09-17 13:52:00,57.9,57.3,29.95,SSW,195,4.0,8.0,98,0.00,,,0.06,Wunderground v.1.15,2013-09-17 18:52:00,
2013-09-17 13:54:00,57.9,57.3,29.95,South,169,4.0,8.0,98,0.00,,,0.06,Wunderground v.1.15,2013-09-17 18:54:00,
2013-09-17 13:56:00,57.9,57.3,29.95,SE,145,4.0,8.0,98,0.00,,,0.06,Wunderground v.1.15,2013-09-17 18:56:00,
2013-09-17 13:58:00,58.0,57.4,29.95,SE,142,4.0,8.0,98,0.00,,,0.06,Wunderground v.1.15,2013-09-17 18:58:00,
2013-09-17 14:02:00,58.1,57.5,29.94,SE,139,4.0,8.0,98,0.00,,,0.06,Wunderground v.1.15,2013-09-17 19:02:00,
2013-09-17 14:04:00,58.0,57.4,29.94,South,169,4.0,8.0,98,0.00,,,0.06,Wunderground v.1.15,2013-09-17 19:04:00,
2013-09-17 14:05:00,58.0,57.4,29.94,SSE,159,4.0,8.0,98,0.00,,,0.06,Wunderground v.1.15,2013-09-17 19:05:00,
2013-09-17 14:09:00,58.1,57.5,29.94,WSW,240,4.0,8.0,98,0.00,,,0.06,Wunderground v.1.15,2013-09-17 19:09:00,
2013-09-17 14:16:00,58.2,57.6,29.93,SE,127,4.0,8.0,98,0.00,,,0.06,Wunderground v.1.15,2013-09-17 19:16:00,
2013-09-17 14:18:00,58.1,57.5,29.93,SE,131,4.0,8.0,98,0.00,,,0.06,Wunderground v.1.15,2013-09-17 19:18:00,
2013-09-17 14:20:00,58.1,57.5,29.93,SSE,163,3.0,3.0,98,0.00,,,0.06,Wunderground v.1.15,2013-09-17 19:20:00,
2013-09-17 14:22:00,58.1,57.5,29.93,SE,141,3.0,8.0,98,0.00,,,0.06,Wunderground v.1.15,2013-09-17 19:22:00,
2013-09-17 14:25:00,58.1,57.5,29.93,SSE,156,3.0,8.0,98,0.00,,,0.06,Wunderground v.1.15,2013-09-17 19:25:00,
2013-09-17 14:28:00,58.1,57.5,29.93,SSE,150,3.0,8.0,98,0.00,,,0.06,Wunderground v.1.15,2013-09-17 19:28:00,
2013-09-17 14:31:00,58.2,57.6,29.92,SE,135,3.0,8.0,98,0.00,,,0.06,Wunderground v.1.15,2013-09-17 19:31:00,
2013-09-17 14:33:00,58.2,57.6,29.92,SE,142,3.0,8.0,98,0.00,,,0.06,Wunderground v.1.15,2013-09-17 19:33:00,
2013-09-17 14:36:00,58.2,57.6,29.92,SSE,155,3.0,8.0,98,0.00,,,0.06,Wunderground v.1.15,2013-09-17 19:36:00,
2013-09-17 14:38:00,58.3,57.7,29.92,SE,125,3.0,8.0,98,0.00,,,0.06,Wunderground v.1.15,2013-09-17 19:38:00,
2013-09-17 14:40:00,58.4,57.8,29.92,SE,127,3.0,8.0,98,0.00,,,0.06,Wunderground v.1.15,2013-09-17 19:40:00,
2013-09-17 14:42:00,58.4,57.8,29.92,South,170,3.0,8.0,98,0.00,,,0.06,Wunderground v.1.15,2013-09-17 19:42:00,
2013-09-17 14:47:00,58.4,57.8,29.91,SE,139,3.0,8.0,98,0.00,,,0.06,Wunderground v.1.15,2013-09-17 19:47:00,
2013-09-17 14:49:00,58.4,57.8,29.92,East,96,3.0,8.0,98,0.00,,,0.06,Wunderground v.1.15,2013-09-17 19:49:00,
2013-09-17 14:51:00,58.4,57.8,29.91,SSE,160,4.0,8.0,98,0.00,,,0.06,Wunderground v.1.15,2013-09-17 19:51:00,
2013-09-17 14:53:00,58.4,57.8,29.91,SSE,159,4.0,8.0,98,0.00,,,0.06,Wunderground v.1.15,2013-09-17 19:53:00,
2013-09-17 14:56:00,58.4,57.8,29.92,SSE,157,3.0,8.0,98,0.00,,,0.06,Wunderground v.1.15,2013-09-17 19:56:00,
2013-09-17 14:58:00,58.4,57.8,29.92,SSE,150,4.0,8.0,98,0.00,,,0.06,Wunderground v.1.15,2013-09-17 19:58:00,
2013-09-17 15:04:00,58.4,57.8,29.91,SE,141,4.0,8.0,98,0.00,,,0.06,Wunderground v.1.15,2013-09-17 20:04:00,
2013-09-17 15:06:00,58.4,57.8,29.91,SSE,153,4.0,8.0,98,0.00,,,0.06,Wunderground v.1.15,2013-09-17 20:06:00,
2013-09-17 15:09:00,58.5,57.9,29.91,SSE,163,4.0,4.0,98,0.00,,,0.06,Wunderground v.1.15,2013-09-17 20:09:00,
2013-09-17 15:11:00,58.5,57.9,29.91,SE,136,3.0,8.0,98,0.00,,,0.06,Wunderground v.1.15,2013-09-17 20:11:00,
2013-09-17 15:13:00,58.5,57.9,29.91,SSE,160,3.0,8.0,98,0.00,,,0.06,Wunderground v.1.15,2013-09-17 20:13:00,
2013-09-17 15:15:00,58.6,58.0,29.91,SSE,149,3.0,8.0,98,0.00,,,0.06,Wunderground v.1.15,2013-09-17 20:15:00,
2013-09-17 15:18:00,58.6,58.0,29.91,SSE,163,4.0,8.0,98,0.00,,,0.06,Wunderground v.1.15,2013-09-17 20:18:00,
2013-09-17 15:22:00,58.5,57.9,29.91,SE,135,4.0,8.0,98,0.00,,,0.06,Wunderground v.1.15,2013-09-17 20:22:00,
2013-09-17 15:26:00,58.5,57.9,29.90,SSE,150,4.0,8.0,98,0.00,,,0.06,Wunderground v.1.15,2013-09-17 20:26:00,
2013-09-17 15:28:00,58.4,57.8,29.90,SE,133,5.0,8.0,98,0.00,,,0.06,Wunderground v.1.15,2013-09-17 20:28:00,
2013-09-17 15:30:00,58.4,57.8,29.90,SSE,158,5.0,5.0,98,0.00,,,0.06,Wunderground v.1.15,2013-09-17 20:30:00,
2013-09-17 15:31:00,58.5,57.9,29.90,ESE,106,4.0,8.0,98,0.00,,,0.06,Wunderground v.1.15,2013-09-17 20:31:00,
2013-09-17 15:33:00,58.5,57.9,29.90,SE,143,4.0,8.0,98,0.00,,,0.06,Wunderground v.1.15,2013-09-17 20:33:00,
2013-09-17 15:40:00,58.5,57.9,29.90,SE,135,4.0,8.0,98,0.00,,,0.06,Wunderground v.1.15,2013-09-17 20:40:00,
2013-09-17 15:42:00,58.5,57.9,29.90,SSE,165,5.0,8.0,98,0.00,,,0.06,Wunderground v.1.15,2013-09-17 20:42:00,
2013-09-17 15:44:00,58.5,57.9,29.90,SSE,158,4.0,8.0,98,0.00,,,0.06,Wunderground v.1.15,2013-09-17 20:44:00,
2013-09-17 15:46:00,58.6,58.0,29.90,South,186,4.0,8.0,98,0.00,,,0.06,Wunderground v.1.15,2013-09-17 20:46:00,
2013-09-17 15:48:00,58.5,57.9,29.90,SSE,164,4.0,8.0,98,0.00,,,0.06,Wunderground v.1.15,2013-09-17 20:48:00,
2013-09-17 15:52:00,58.5,57.9,29.90,SSE,156,4.0,8.0,98,0.00,,,0.06,Wunderground v.1.15,2013-09-17 20:52:00,
2013-09-17 15:53:00,58.5,57.9,29.90,SSE,158,4.0,8.0,98,0.00,,,0.06,Wunderground v.1.15,2013-09-17 20:53:00,
2013-09-17 16:02:00,58.5,57.9,29.90,SSE,166,4.0,8.0,98,0.00,,,0.06,Wunderground v.1.15,2013-09-17 21:02:00,
2013-09-17 16:04:00,58.5,57.9,29.90,SSE,147,4.0,8.0,98,0.00,,,0.06,Wunderground v.1.15,2013-09-17 21:04:00,
2013-09-17 16:06:00,58.5,57.9,29.90,SSE,165,4.0,8.0,98,0.00,,,0.06,Wunderground v.1.15,2013-09-17 21:06:00,
2013-09-17 16:08:00,58.5,57.9,29.90,SE,141,4.0,8.0,98,0.00,,,0.06,Wunderground v.1.15,2013-09-17 21:08:00,
2013-09-17 16:10:00,58.5,57.9,29.89,SE,131,4.0,8.0,98,0.00,,,0.06,Wunderground v.1.15,2013-09-17 21:10:00,
2013-09-17 16:14:00,58.5,57.9,29.89,ESE,119,4.0,8.0,98,0.00,,,0.06,Wunderground v.1.15,2013-09-17 21:14:00,
2013-09-17 16:16:00,58.5,57.9,29.89,SE,135,4.0,8.0,98,0.00,,,0.06,Wunderground v.1.15,2013-09-17 21:16:00,
2013-09-17 16:19:00,58.5,57.9,29.88,ESE,117,4.0,8.0,98,0.00,,,0.06,Wunderground v.1.15,2013-09-17 21:19:00,
2013-09-17 16:21:00,58.5,57.9,29.89,SE,135,4.0,8.0,98,0.00,,,0.06,Wunderground v.1.15,2013-09-17 21:21:00,
2013-09-17 16:24:00,58.6,58.3,29.88,ESE,105,4.0,8.0,99,0.00,,,0.06,Wunderground v.1.15,2013-09-17 21:24:00,
2013-09-17 16:26:00,58.6,58.3,29.88,SSE,158,3.0,8.0,99,0.00,,,0.06,Wunderground v.1.15,2013-09-17 21:26:00,
2013-09-17 16:30:00,58.6,58.3,29.88,SE,136,4.0,8.0,99,0.00,,,0.06,Wunderground v.1.15,2013-09-17 21:30:00,
2013-09-17 16:32:00,58.6,58.3,29.88,SE,130,4.0,8.0,99,0.00,,,0.06,Wunderground v.1.15,2013-09-17 21:32:00,
2013-09-17 16:34:00,58.7,58.4,29.88,SE,145,4.0,8.0,99,0.00,,,0.06,Wunderground v.1.15,2013-09-17 21:34:00,
2013-09-17 16:36:00,58.7,58.4,29.88,South,184,4.0,8.0,99,0.00,,,0.06,Wunderground v.1.15,2013-09-17 21:36:00,
2013-09-17 16:38:00,58.7,58.4,29.88,SSE,159,4.0,8.0,99,0.00,,,0.06,Wunderground v.1.15,2013-09-17 21:38:00,
2013-09-17 16:41:00,58.7,58.4,29.88,SSE,162,4.0,8.0,99,0.00,,,0.06,Wunderground v.1.15,2013-09-17 21:41:00,
2013-09-17 16:44:00,58.7,58.4,29.88,SSE,148,4.0,8.0,99,0.00,,,0.06,Wunderground v.1.15,2013-09-17 21:44:00,
2013-09-17 16:46:00,58.8,58.5,29.88,SE,142,3.0,8.0,99,0.00,,,0.06,Wunderground v.1.15,2013-09-17 21:46:00,
2013-09-17 16:48:00,58.8,58.5,29.88,SSW,208,3.0,8.0,99,0.00,,,0.06,Wunderground v.1.15,2013-09-17 21:48:00,
2013-09-17 16:50:00,58.8,58.5,29.88,SE,141,3.0,3.0,99,0.00,,,0.06,Wunderground v.1.15,2013-09-17 21:50:00,
2013-09-17 16:56:00,58.7,58.4,29.88,SSE,158,4.0,8.0,99,0.00,,,0.06,Wunderground v.1.15,2013-09-17 21:56:00,
2013-09-17 16:58:00,58.7,58.4,29.87,SE,145,4.0,8.0,99,0.00,,,0.06,Wunderground v.1.15,2013-09-17 21:58:00,
2013-09-17 17:03:00,58.8,58.5,29.87,SE,141,4.0,8.0,99,0.00,,,0.06,Wunderground v.1.15,2013-09-17 22:03:00,
2013-09-17 17:06:00,58.8,58.5,29.87,ESE,117,4.0,8.0,99,0.00,,,0.06,Wunderground v.1.15,2013-09-17 22:06:00,
2013-09-17 17:10:00,58.8,58.5,29.87,SSE,166,4.0,8.0,99,0.00,,,0.06,Wunderground v.1.15,2013-09-17 22:10:00,
2013-09-17 17:12:00,58.9,58.6,29.87,ESE,117,3.0,8.0,99,0.00,,,0.06,Wunderground v.1.15,2013-09-17 22:12:00,
2013-09-17 17:16:00,58.9,58.6,29.87,SE,136,4.0,8.0,99,0.00,,,0.06,Wunderground v.1.15,2013-09-17 22:16:00,
2013-09-17 17:18:00,58.8,58.5,29.87,SE,143,4.0,8.0,99,0.00,,,0.06,Wunderground v.1.15,2013-09-17 22:18:00,
2013-09-17 17:21:00,58.9,58.6,29.87,SSE,148,4.0,8.0,99,0.00,,,0.06,Wunderground v.1.15,2013-09-17 22:21:00,
2013-09-17 17:23:00,58.9,58.6,29.87,SE,133,4.0,8.0,99,0.00,,,0.06,Wunderground v.1.15,2013-09-17 22:23:00,
2013-09-17 17:30:00,58.8,58.5,29.87,SE,128,4.0,4.0,99,0.00,,,0.06,Wunderground v.1.15,2013-09-17 22:30:00,
2013-09-17 17:36:00,58.9,58.6,29.87,SE,135,3.0,8.0,99,0.00,,,0.06,Wunderground v.1.15,2013-09-17 22:36:00,
2013-09-17 17:38:00,58.9,58.6,29.87,SSE,155,3.0,8.0,99,0.00,,,0.06,Wunderground v.1.15,2013-09-17 22:38:00,
2013-09-17 17:40:00,58.9,58.6,29.87,ESE,107,3.0,3.0,99,0.00,,,0.06,Wunderground v.1.15,2013-09-17 22:40:00,
2013-09-17 17:42:00,58.8,58.5,29.87,SSE,164,3.0,4.0,99,0.00,,,0.06,Wunderground v.1.15,2013-09-17 22:42:00,
2013-09-17 17:43:00,58.8,58.5,29.87,SE,139,3.0,8.0,99,0.00,,,0.06,Wunderground v.1.15,2013-09-17 22:43:00,
2013-09-17 17:50:00,58.8,58.5,29.87,SSE,160,3.0,8.0,99,0.00,,,0.06,Wunderground v.1.15,2013-09-17 22:50:00,
2013-09-17 17:54:00,58.8,58.5,29.86,SE,129,4.0,8.0,99,0.00,,,0.06,Wunderground v.1.15,2013-09-17 22:54:00,
2013-09-17 17:56:00,58.8,58.5,29.86,SE,143,4.0,8.0,99,0.00,,,0.06,Wunderground v.1.15,2013-09-17 22:56:00,
2013-09-17 17:58:00,58.8,58.5,29.86,SSE,160,5.0,8.0,99,0.00,,,0.06,Wunderground v.1.15,2013-09-17 22:58:00,
2013-09-17 18:02:00,58.9,58.6,29.86,ESE,117,5.0,7.0,99,0.00,,,0.06,Wunderground v.1.15,2013-09-17 23:02:00,
2013-09-17 18:04:00,58.9,58.6,29.86,South,170,5.0,8.0,99,0.00,,,0.06,Wunderground v.1.15,2013-09-17 23:04:00,
2013-09-17 18:05:00,58.9,58.6,29.86,SSE,155,5.0,8.0,99,0.00,,,0.06,Wunderground v.1.15,2013-09-17 23:05:00,
2013-09-17 18:10:00,58.9,58.6,29.86,ESE,107,5.0,8.0,99,0.00,,,0.06,Wunderground v.1.15,2013-09-17 23:10:00,
2013-09-17 18:16:00,58.9,58.6,29.86,SSE,165,5.0,8.0,99,0.00,,,0.06,Wunderground v.1.15,2013-09-17 23:16:00,
2013-09-17 18:18:00,58.9,58.6,29.86,SSE,153,4.0,8.0,99,0.00,,,0.06,Wunderground v.1.15,2013-09-17 23:18:00,
2013-09-17 18:24:00,58.9,58.6,29.86,SSE,162,4.0,8.0,99,0.00,,,0.06,Wunderground v.1.15,2013-09-17 23:24:00,
2013-09-17 18:26:00,58.9,58.6,29.86,South,177,4.0,8.0,99,0.00,,,0.06,Wunderground v.1.15,2013-09-17 23:26:00,
2013-09-17 18:30:00,58.9,58.6,29.86,SE,141,4.0,8.0,99,0.00,,,0.06,Wunderground v.1.15,2013-09-17 23:30:00,
2013-09-17 18:34:00,58.9,58.6,29.86,South,174,3.0,8.0,99,0.00,,,0.06,Wunderground v.1.15,2013-09-17 23:34:00,
2013-09-17 18:36:00,58.9,58.6,29.86,SE,142,3.0,8.0,99,0.00,,,0.06,Wunderground v.1.15,2013-09-17 23:36:00,
2013-09-17 18:38:00,58.8,58.5,29.86,SSE,159,3.0,8.0,99,0.00,,,0.06,Wunderground v.1.15,2013-09-17 23:38:00,
2013-09-17 18:41:00,58.9,58.6,29.86,SSE,150,3.0,8.0,99,0.00,,,0.06,Wunderground v.1.15,2013-09-17 23:41:00,
2013-09-17 18:44:00,58.9,58.6,29.86,SE,134,3.0,8.0,99,0.00,,,0.06,Wunderground v.1.15,2013-09-17 23:44:00,
2013-09-17 18:46:00,58.9,58.6,29.86,ESE,122,3.0,8.0,99,0.00,,,0.06,Wunderground v.1.15,2013-09-17 23:46:00,
2013-09-17 18:50:00,58.9,58.6,29.85,SSE,155,3.0,8.0,99,0.00,,,0.06,Wunderground v.1.15,2013-09-17 23:50:00,
2013-09-17 18:52:00,58.9,58.6,29.85,SSE,148,3.0,8.0,99,0.00,,,0.06,Wunderground v.1.15,2013-09-17 23:52:00,
2013-09-17 18:56:00,58.9,58.6,29.85,SSE,153,3.0,8.0,99,0.00,,,0.06,Wunderground v.1.15,2013-09-17 23:56:00,
2013-09-17 18:58:00,58.9,58.6,29.85,SE,142,3.0,8.0,99,0.00,,,0.06,Wunderground v.1.15,2013-09-17 23:58:00,
2013-09-17 19:03:00,58.9,58.6,29.85,SE,141,3.0,8.0,99,0.00,,,0.06,Wunderground v.1.15,2013-09-18 00:03:00,
2013-09-17 19:06:00,58.9,58.6,29.85,SE,142,3.0,8.0,99,0.00,,,0.06,Wunderground v.1.15,2013-09-18 00:06:00,
2013-09-17 19:08:00,58.9,58.6,29.85,SE,134,3.0,8.0,99,0.00,,,0.06,Wunderground v.1.15,2013-09-18 00:08:00,
2013-09-17 19:12:00,58.9,58.6,29.85,SE,143,3.0,8.0,99,0.00,,,0.06,Wunderground v.1.15,2013-09-18 00:12:00,
2013-09-17 19:14:00,58.9,58.6,29.85,SSE,152,2.0,8.0,99,0.00,,,0.06,Wunderground v.1.15,2013-09-18 00:14:00,
2013-09-17 19:16:00,58.9,58.6,29.85,SE,142,2.0,8.0,99,0.00,,,0.06,Wunderground v.1.15,2013-09-18 00:16:00,
2013-09-17 19:18:00,58.9,58.6,29.85,SE,142,2.0,8.0,99,0.00,,,0.06,Wunderground v.1.15,2013-09-18 00:18:00,
2013-09-17 19:22:00,58.9,58.6,29.85,SE,129,2.0,8.0,99,0.00,,,0.06,Wunderground v.1.15,2013-09-18 00:22:00,
2013-09-17 19:23:00,58.9,58.6,29.85,SE,131,3.0,8.0,99,0.00,,,0.06,Wunderground v.1.15,2013-09-18 00:23:00,
2013-09-17 19:25:00,58.9,58.6,29.85,SE,129,3.0,8.0,99,0.00,,,0.06,Wunderground v.1.15,2013-09-18 00:25:00,
2013-09-17 19:30:00,58.9,58.6,29.85,SSE,148,3.0,8.0,99,0.00,,,0.06,Wunderground v.1.15,2013-09-18 00:30:00,
2013-09-17 19:32:00,58.9,58.6,29.85,SE,131,3.0,8.0,99,0.00,,,0.06,Wunderground v.1.15,2013-09-18 00:32:00,
2013-09-17 19:38:00,59.0,58.7,29.84,SSE,148,3.0,8.0,99,0.00,,,0.06,Wunderground v.1.15,2013-09-18 00:38:00,
2013-09-17 19:40:00,59.0,58.7,29.84,SE,127,3.0,8.0,99,0.00,,,0.06,Wunderground v.1.15,2013-09-18 00:40:00,
2013-09-17 19:42:00,59.1,58.8,29.84,ESE,115,3.0,8.0,99,0.00,,,0.06,Wunderground v.1.15,2013-09-18 00:42:00,
2013-09-17 19:43:00,59.1,58.8,29.84,SE,133,3.0,8.0,99,0.00,,,0.06,Wunderground v.1.15,2013-09-18 00:43:00,
2013-09-17 19:50:00,59.3,59.3,29.84,SSE,159,3.0,8.0,100,0.00,,,0.06,Wunderground v.1.15,2013-09-18 00:50:00,
2013-09-17 19:54:00,59.2,58.9,29.84,SE,125,3.0,8.0,99,0.00,,,0.06,Wunderground v.1.15,2013-09-18 00:54:00,
2013-09-17 19:56:00,59.2,58.9,29.84,SE,135,3.0,8.0,99,0.00,,,0.06,Wunderground v.1.15,2013-09-18 00:56:00,
2013-09-17 19:58:00,59.3,59.0,29.84,SE,137,3.0,8.0,99,0.00,,,0.06,Wunderground v.1.15,2013-09-18 00:58:00,
2013-09-17 20:02:00,59.2,59.2,29.84,SSE,158,3.0,8.0,100,0.00,,,0.06,Wunderground v.1.15,2013-09-18 01:02:00,
2013-09-17 20:04:00,59.3,59.0,29.84,SSE,153,2.0,8.0,99,0.00,,,0.06,Wunderground v.1.15,2013-09-18 01:04:00,
2013-09-17 20:10:00,59.2,58.9,29.85,SE,129,2.0,8.0,99,0.00,,,0.06,Wunderground v.1.15,2013-09-18 01:10:00,
2013-09-17 20:12:00,59.2,58.9,29.85,SE,135,2.0,8.0,99,0.00,,,0.06,Wunderground v.1.15,2013-09-18 01:12:00,
2013-09-17 20:18:00,59.3,59.3,29.85,South,169,3.0,8.0,100,0.00,,,0.06,Wunderground v.1.15,2013-09-18 01:18:00,
2013-09-17 20:20:00,59.3,59.3,29.84,SSE,167,3.0,8.0,100,0.00,,,0.06,Wunderground v.1.15,2013-09-18 01:20:00,
2013-09-17 20:22:00,59.4,59.4,29.85,South,169,3.0,8.0,100,0.00,,,0.06,Wunderground v.1.15,2013-09-18 01:22:00,
2013-09-17 20:24:00,59.4,59.4,29.84,South,184,3.0,8.0,100,0.00,,,0.06,Wunderground v.1.15,2013-09-18 01:24:00,
2013-09-17 20:26:00,59.5,59.5,29.84,ESE,118,3.0,8.0,100,0.00,,,0.06,Wunderground v.1.15,2013-09-18 01:26:00,
2013-09-17 20:27:00,59.5,59.5,29.84,SE,128,3.0,8.0,100,0.00,,,0.06,Wunderground v.1.15,2013-09-18 01:27:00,
2013-09-17 20:34:00,59.5,59.5,29.84,SE,134,3.0,8.0,100,0.00,,,0.06,Wunderground v.1.15,2013-09-18 01:34:00,
2013-09-17 20:36:00,59.5,59.5,29.84,SSE,167,3.0,8.0,100,0.00,,,0.06,Wunderground v.1.15,2013-09-18 01:36:00,
2013-09-17 20:42:00,59.6,59.6,29.84,SSE,148,3.0,8.0,100,0.00,,,0.07,Wunderground v.1.15,2013-09-18 01:42:00,
2013-09-17 20:47:00,59.6,59.6,29.84,SE,135,3.0,8.0,100,0.00,,,0.07,Wunderground v.1.15,2013-09-18 01:47:00,
2013-09-17 20:49:00,59.5,59.5,29.84,SE,135,3.0,3.0,100,0.00,,,0.07,Wunderground v.1.15,2013-09-18 01:49:00,
2013-09-17 20:54:00,59.6,59.6,29.84,South,179,3.0,8.0,100,0.00,,,0.07,Wunderground v.1.15,2013-09-18 01:54:00,
2013-09-17 20:56:00,59.6,59.6,29.84,South,172,3.0,8.0,100,0.00,,,0.07,Wunderground v.1.15,2013-09-18 01:56:00,
2013-09-17 20:58:00,59.7,59.7,29.84,SE,125,3.0,8.0,100,0.00,,,0.07,Wunderground v.1.15,2013-09-18 01:58:00,
2013-09-17 21:04:00,59.7,59.7,29.84,SSE,149,3.0,8.0,100,0.00,,,0.07,Wunderground v.1.15,2013-09-18 02:04:00,
2013-09-17 21:06:00,59.7,59.7,29.84,SSE,155,3.0,8.0,100,0.00,,,0.07,Wunderground v.1.15,2013-09-18 02:06:00,
2013-09-17 21:08:00,59.7,59.7,29.84,SE,142,3.0,8.0,100,0.00,,,0.07,Wunderground v.1.15,2013-09-18 02:08:00,
2013-09-17 21:10:00,59.7,59.7,29.84,SSE,155,3.0,3.0,100,0.00,,,0.07,Wunderground v.1.15,2013-09-18 02:10:00,
2013-09-17 21:12:00,59.8,59.8,29.84,SE,145,3.0,8.0,100,0.00,,,0.07,Wunderground v.1.15,2013-09-18 02:12:00,
2013-09-17 21:14:00,59.8,59.8,29.84,SE,141,3.0,8.0,100,0.00,,,0.07,Wunderground v.1.15,2013-09-18 02:14:00,
2013-09-17 21:16:00,59.8,59.8,29.84,SE,134,3.0,8.0,100,0.00,,,0.07,Wunderground v.1.15,2013-09-18 02:16:00,
2013-09-17 21:17:00,59.8,59.8,29.84,SSE,150,3.0,8.0,100,0.00,,,0.07,Wunderground v.1.15,2013-09-18 02:17:00,
2013-09-17 21:19:00,59.8,59.8,29.84,SSE,159,3.0,8.0,100,0.00,,,0.07,Wunderground v.1.15,2013-09-18 02:19:00,
2013-09-17 21:22:00,59.7,59.7,29.84,SE,124,3.0,8.0,100,0.00,,,0.07,Wunderground v.1.15,2013-09-18 02:22:00,
2013-09-17 21:28:00,59.9,59.9,29.83,SE,136,3.0,8.0,100,0.00,,,0.07,Wunderground v.1.15,2013-09-18 02:28:00,
2013-09-17 21:32:00,59.9,59.9,29.83,SE,142,3.0,8.0,100,0.00,,,0.07,Wunderground v.1.15,2013-09-18 02:32:00,
2013-09-17 21:36:00,60.0,60.0,29.83,SE,133,3.0,8.0,100,0.00,,,0.07,Wunderground v.1.15,2013-09-18 02:36:00,
2013-09-17 21:38:00,60.0,60.0,29.84,SE,138,3.0,8.0,100,0.00,,,0.07,Wunderground v.1.15,2013-09-18 02:38:00,
2013-09-17 21:39:00,59.9,59.9,29.84,SE,145,3.0,3.0,100,0.00,,,0.07,Wunderground v.1.15,2013-09-18 02:39:00,
2013-09-17 21:44:00,60.1,60.1,29.83,SE,141,3.0,8.0,100,0.00,,,0.07,Wunderground v.1.15,2013-09-18 02:44:00,
2013-09-17 21:46:00,60.0,60.0,29.84,SE,131,3.0,8.0,100,0.00,,,0.07,Wunderground v.1.15,2013-09-18 02:46:00,
2013-09-17 21:48:00,60.0,60.0,29.84,SSE,148,3.0,8.0,100,0.00,,,0.07,Wunderground v.1.15,2013-09-18 02:48:00,
2013-09-17 21:50:00,60.1,60.1,29.84,SSE,162,3.0,8.0,100,0.00,,,0.07,Wunderground v.1.15,2013-09-18 02:50:00,
2013-09-17 21:52:00,60.1,60.1,29.84,ESE,118,3.0,8.0,100,0.00,,,0.07,Wunderground v.1.15,2013-09-18 02:52:00,
2013-09-17 21:58:00,60.2,60.2,29.84,SSE,163,3.0,8.0,100,0.00,,,0.07,Wunderground v.1.15,2013-09-18 02:58:00,
2013-09-17 22:01:00,60.3,60.3,29.84,SE,142,3.0,8.0,100,0.00,,,0.07,Wunderground v.1.15,2013-09-18 03:01:00,
2013-09-17 22:03:00,60.3,60.3,29.84,SE,135,4.0,9.0,100,0.00,,,0.07,Wunderground v.1.15,2013-09-18 03:03:00,
2013-09-17 22:10:00,60.3,60.3,29.84,SE,143,4.0,8.0,100,0.00,,,0.07,Wunderground v.1.15,2013-09-18 03:10:00,
2013-09-17 22:12:00,60.3,60.3,29.84,South,169,4.0,8.0,100,0.00,,,0.07,Wunderground v.1.15,2013-09-18 03:12:00,
2013-09-17 22:14:00,60.3,60.3,29.84,SSE,148,4.0,8.0,100,0.00,,,0.07,Wunderground v.1.15,2013-09-18 03:14:00,
2013-09-17 22:16:00,60.4,60.4,29.84,South,170,4.0,8.0,100,0.00,,,0.07,Wunderground v.1.15,2013-09-18 03:16:00,
2013-09-17 22:20:00,60.5,60.5,29.84,SSE,163,4.0,8.0,100,0.00,,,0.07,Wunderground v.1.15,2013-09-18 03:20:00,
2013-09-17 22:21:00,60.5,60.5,29.84,SE,135,3.0,8.0,100,0.00,,,0.07,Wunderground v.1.15,2013-09-18 03:21:00,
2013-09-17 22:26:00,60.5,60.5,29.84,South,190,4.0,8.0,100,0.00,,,0.07,Wunderground v.1.15,2013-09-18 03:26:00,
2013-09-17 22:28:00,60.6,60.6,29.83,ESE,113,4.0,8.0,100,0.00,,,0.07,Wunderground v.1.15,2013-09-18 03:28:00,
2013-09-17 22:30:00,60.6,60.6,29.83,SSE,156,4.0,8.0,100,0.00,,,0.07,Wunderground v.1.15,2013-09-18 03:30:00,
2013-09-17 22:36:00,60.7,60.7,29.83,SSE,160,3.0,8.0,100,0.00,,,0.07,Wunderground v.1.15,2013-09-18 03:36:00,
2013-09-17 22:40:00,60.7,60.7,29.83,ESE,117,4.0,4.0,100,0.00,,,0.07,Wunderground v.1.15,2013-09-18 03:40:00,
2013-09-17 22:42:00,60.8,60.8,29.84,ESE,115,4.0,5.0,100,0.00,,,0.07,Wunderground v.1.15,2013-09-18 03:42:00,
2013-09-17 22:45:00,60.9,60.9,29.83,SSE,163,4.0,8.0,100,0.00,,,0.07,Wunderground v.1.15,2013-09-18 03:45:00,
2013-09-17 22:48:00,60.9,60.9,29.83,SSE,148,4.0,8.0,100,0.00,,,0.07,Wunderground v.1.15,2013-09-18 03:48:00,
2013-09-17 22:50:00,60.9,60.9,29.83,ESE,104,4.0,4.0,100,0.00,,,0.07,Wunderground v.1.15,2013-09-18 03:50:00,
2013-09-17 22:52:00,61.0,61.0,29.83,South,174,4.0,8.0,100,0.00,,,0.07,Wunderground v.1.15,2013-09-18 03:52:00,
2013-09-17 22:54:00,61.1,61.1,29.83,ESE,103,4.0,8.0,100,0.00,,,0.07,Wunderground v.1.15,2013-09-18 03:54:00,
2013-09-17 22:58:00,61.2,61.2,29.83,ESE,114,4.0,8.0,100,0.00,,,0.07,Wunderground v.1.15,2013-09-18 03:58:00,
2013-09-17 23:00:00,61.2,61.2,29.83,ESE,115,4.0,8.0,100,0.00,,,0.07,Wunderground v.1.15,2013-09-18 04:00:00,
2013-09-17 23:02:00,61.3,61.3,29.83,SE,141,4.0,8.0,100,0.00,,,0.07,Wunderground v.1.15,2013-09-18 04:02:00,
2013-09-17 23:04:00,61.3,61.3,29.83,SSE,160,4.0,8.0,100,0.00,,,0.07,Wunderground v.1.15,2013-09-18 04:04:00,
2013-09-17 23:05:00,61.4,61.4,29.83,SSE,163,5.0,8.0,100,0.00,,,0.07,Wunderground v.1.15,2013-09-18 04:05:00,
2013-09-17 23:10:00,61.4,61.4,29.83,SSE,167,5.0,5.0,100,0.00,,,0.08,Wunderground v.1.15,2013-09-18 04:10:00,
2013-09-17 23:12:00,61.4,61.4,29.83,SSE,160,5.0,8.0,100,0.00,,,0.08,Wunderground v.1.15,2013-09-18 04:12:00,
2013-09-17 23:16:00,61.5,61.5,29.83,SSE,148,4.0,8.0,100,0.00,,,0.08,Wunderground v.1.15,2013-09-18 04:16:00,
2013-09-17 23:18:00,61.6,61.6,29.83,SE,141,4.0,8.0,100,0.00,,,0.08,Wunderground v.1.15,2013-09-18 04:18:00,
2013-09-17 23:20:00,61.6,61.6,29.83,South,172,4.0,4.0,100,0.00,,,0.08,Wunderground v.1.15,2013-09-18 04:20:00,
2013-09-17 23:24:00,61.7,61.7,29.83,SSE,163,4.0,8.0,100,0.00,,,0.08,Wunderground v.1.15,2013-09-18 04:24:00,
2013-09-17 23:30:00,61.9,61.9,29.83,ESE,114,3.0,8.0,100,0.00,,,0.08,Wunderground v.1.15,2013-09-18 04:30:00,
2013-09-17 23:32:00,61.9,61.9,29.83,SE,139,3.0,8.0,100,0.00,,,0.08,Wunderground v.1.15,2013-09-18 04:32:00,
2013-09-17 23:36:00,62.0,62.0,29.82,SE,128,4.0,8.0,100,0.00,,,0.08,Wunderground v.1.15,2013-09-18 04:36:00,
2013-09-17 23:40:00,62.1,62.1,29.83,SE,143,4.0,8.0,100,0.00,,,0.08,Wunderground v.1.15,2013-09-18 04:40:00,
2013-09-17 23:42:00,62.2,62.2,29.82,SSE,150,5.0,8.0,100,0.00,,,0.08,Wunderground v.1.15,2013-09-18 04:42:00,
2013-09-17 23:44:00,62.2,62.2,29.82,South,176,5.0,8.0,100,0.00,,,0.08,Wunderground v.1.15,2013-09-18 04:44:00,
2013-09-17 23:46:00,62.3,62.3,29.82,SSE,155,5.0,8.0,100,0.00,,,0.08,Wunderground v.1.15,2013-09-18 04:46:00,
2013-09-17 23:47:00,62.3,62.3,29.82,SE,134,5.0,8.0,100,0.00,,,0.08,Wunderground v.1.15,2013-09-18 04:47:00,
2013-09-17 23:49:00,62.3,62.3,29.82,SSE,149,5.0,5.0,100,0.00,,,0.08,Wunderground v.1.15,2013-09-18 04:49:00,
2013-09-17 23:52:00,62.4,62.4,29.83,SE,131,5.0,8.0,100,0.00,,,0.08,Wunderground v.1.15,2013-09-18 04:52:00,
2013-09-17 23:56:00,62.4,62.4,29.82,SSE,155,5.0,8.0,100,0.00,,,0.08,Wunderground v.1.15,2013-09-18 04:56:00,
2013-09-17 23:58:00,62.4,62.4,29.82,SE,143,5.0,8.0,100,0.00,,,0.08,Wunderground v.1.15,2013-09-18 04:58:00,